»·PEaware :: ASA515 KLAS-KLAX

ASA515 :: KLAS-KLAX

FLIGHT INFORMATION

Flight Status: Arrived
Operator:
Alaska Airlines
More flights by this operator :: More flights under this callsign
Pilot: Doug L. (8712)
Aircraft: BOEING 737-800
(B738)
More flights by this aircraft type
Origin: KLAS McCarran Intl
United States
Destination: KLAX Los Angeles Intl
United States
More flights between these airports :: More routes between these airports
Route: BOACH8 RIKII SHTNR ANJILL4
File this flight plan on PilotEdge
Remarks:
Altitude:
(Current/Filed)
30,000ft
Speed:
(Current/Filed)
465kts
Departed: 21-Dec-18 08:33 PM
Arrived: 21-Dec-18 09:16 PM
Distance/Time
Traveled:
205nm/0:42
Distance/Time
To Go:
Arrived

Flight Plot

Page will automatically refresh every two minutes.

Flight plan parsing failed; only flown route is shown


Map Options




Map Legend


Flown Route
Filed Route
Departure Airport
Arrival Airport
Navaid (VOR, NDB)
Fix

Horizontal Profiles

Position Reports

Time Latitude Longitude Heading Altitude Ground
Speed
21-Dec-18 20:10 36.084937 -115.153986 337 2110ft 0kts
21-Dec-18 20:11 36.084937 -115.153986 337 2110ft 0kts
21-Dec-18 20:12 36.084937 -115.153986 337 2110ft 0kts
21-Dec-18 20:13 36.084937 -115.153986 337 2110ft 0kts
21-Dec-18 20:14 36.084937 -115.153986 337 2110ft 0kts
21-Dec-18 20:15 36.084937 -115.153986 337 2110ft 0kts
21-Dec-18 20:16 36.084937 -115.153986 337 2110ft 0kts
21-Dec-18 20:17 36.084937 -115.153986 337 2110ft 0kts
21-Dec-18 20:18 36.084937 -115.153986 337 2110ft 0kts
21-Dec-18 20:19 36.084937 -115.153986 337 2110ft 0kts
21-Dec-18 20:20 36.084937 -115.153986 337 2110ft 0kts
21-Dec-18 20:21 36.084937 -115.153986 337 2110ft 0kts
21-Dec-18 20:22 36.084594 -115.153810 338 2110ft 2kts
21-Dec-18 20:23 36.084224 -115.153378 277 2109ft 2kts
21-Dec-18 20:24 36.084278 -115.153056 244 2108ft 0kts
21-Dec-18 20:25 36.084278 -115.153056 244 2108ft 0kts
21-Dec-18 20:26 36.084225 -115.153190 244 2108ft 4kts
21-Dec-18 20:27 36.083311 -115.155658 270 2120ft 5kts
21-Dec-18 20:28 36.087554 -115.157572 25 2117ft 25kts
21-Dec-18 20:29 36.093991 -115.153982 24 2089ft 25kts
21-Dec-18 20:30 36.097890 -115.152214 308 2076ft 0kts
21-Dec-18 20:31 36.097816 -115.153989 204 2081ft 27kts
21-Dec-18 20:32 36.065246 -115.172870 205 2706ft 181kts
21-Dec-18 20:33 36.016178 -115.202299 218 4054ft 229kts
21-Dec-18 20:34 35.980170 -115.277825 232 5821ft 270kts
21-Dec-18 20:35 35.912976 -115.312303 180 8189ft 281kts
21-Dec-18 20:36 35.835076 -115.313321 177 10254ft 300kts
21-Dec-18 20:37 35.746848 -115.302696 177 11975ft 331kts
21-Dec-18 20:38 35.654114 -115.294808 186 14191ft 339kts
21-Dec-18 20:39 35.558394 -115.299257 186 16357ft 352kts
21-Dec-18 20:40 35.466941 -115.326867 218 18558ft 344kts
21-Dec-18 20:41 35.387811 -115.387247 216 20487ft 358kts
21-Dec-18 20:42 35.301268 -115.450132 216 22431ft 368kts
21-Dec-18 20:43 35.212523 -115.514415 216 24167ft 379kts
21-Dec-18 20:44 35.122036 -115.582633 227 25802ft 381kts
21-Dec-18 20:45 35.052880 -115.669365 231 27311ft 384kts
21-Dec-18 20:46 34.980692 -115.761695 231 28773ft 390kts
21-Dec-18 20:47 34.905186 -115.857853 231 30040ft 399kts
21-Dec-18 20:48 34.828083 -115.955949 231 30062ft 429kts
21-Dec-18 20:49 34.748033 -116.057464 231 30076ft 436kts
21-Dec-18 20:50 34.665858 -116.162074 231 30104ft 433kts
21-Dec-18 20:51 34.582659 -116.267695 230 30107ft 435kts
21-Dec-18 20:52 34.499555 -116.372829 230 30090ft 426kts
21-Dec-18 20:53 34.420262 -116.476121 240 30101ft 416kts
21-Dec-18 20:54 34.367804 -116.596330 247 29734ft 402kts
21-Dec-18 20:55 34.325483 -116.699091 247 27590ft 397kts
21-Dec-18 20:56 34.278319 -116.816253 247 25390ft 381kts
21-Dec-18 20:57 34.232784 -116.929122 247 23413ft 374kts
21-Dec-18 20:58 34.194276 -117.041963 255 21435ft 361kts
21-Dec-18 20:59 34.164377 -117.155388 254 19439ft 352kts
21-Dec-18 21:00 34.134186 -117.265330 254 17434ft 342kts
21-Dec-18 21:01 34.104815 -117.371737 254 15436ft 333kts
21-Dec-18 21:02 34.079248 -117.473610 255 14012ft 311kts
21-Dec-18 21:03 34.047449 -117.570898 248 13099ft 311kts
21-Dec-18 21:04 34.014056 -117.663117 248 11588ft 299kts
21-Dec-18 21:05 33.999035 -117.758414 265 10326ft 292kts
21-Dec-18 21:06 33.990203 -117.852423 264 8338ft 279kts
21-Dec-18 21:07 33.981824 -117.938573 264 6448ft 272kts
21-Dec-18 21:08 33.973269 -118.025423 264 5133ft 260kts
21-Dec-18 21:09 33.965784 -118.103505 264 4879ft 229kts
21-Dec-18 21:10 33.958532 -118.176279 263 3551ft 218kts
21-Dec-18 21:11 33.952101 -118.239533 263 2483ft 194kts
21-Dec-18 21:12 33.946580 -118.293400 263 1593ft 155kts
21-Dec-18 21:13 33.941461 -118.343312 263 785ft 153kts
21-Dec-18 21:14 33.936353 -118.392766 263 110ft 134kts
21-Dec-18 21:15 33.935978 -118.406542 279 130ft 0kts
21-Dec-18 21:16 33.935934 -118.407679 266 131ft 13kts
21-Dec-18 21:17 33.938608 -118.409043 53 131ft 10kts
21-Dec-18 21:18 33.939235 -118.403558 83 126ft 12kts
21-Dec-18 21:19 33.940868 -118.402629 97 124ft 0kts
21-Dec-18 21:20 33.940864 -118.402592 96 124ft 0kts

Navigation Log

Ident Type
Flight plan parsing failed, navigation log unavailable